createdAt,value
2022-11-21T00:01:15.778Z,7.60
2022-11-21T00:03:42.575Z,7.60
2022-11-21T00:06:09.318Z,7.60
2022-11-21T00:08:36.006Z,7.60
2022-11-21T00:11:02.699Z,7.70
2022-11-21T00:13:29.353Z,7.70
2022-11-21T00:15:55.998Z,7.70
2022-11-21T00:18:22.778Z,7.70
2022-11-21T00:20:49.387Z,7.70
2022-11-21T00:23:15.973Z,7.70
2022-11-21T00:25:42.603Z,7.70
2022-11-21T00:28:09.264Z,7.80
2022-11-21T00:30:36.277Z,7.80
2022-11-21T00:33:02.889Z,7.80
2022-11-21T00:35:30.966Z,7.80
2022-11-21T00:37:57.543Z,7.80
2022-11-21T00:40:24.131Z,7.80
2022-11-21T00:42:50.895Z,7.80
2022-11-21T00:45:23.815Z,7.80
2022-11-21T00:47:51.094Z,7.90
2022-11-21T00:50:18.045Z,7.80
2022-11-21T00:52:44.894Z,7.90
2022-11-21T00:55:11.519Z,7.90
2022-11-21T00:57:38.540Z,7.90
2022-11-21T01:00:06.161Z,7.90
2022-11-21T01:02:33.215Z,7.90
2022-11-21T01:04:59.869Z,7.90
2022-11-21T01:07:26.649Z,7.90
2022-11-21T01:09:53.470Z,7.90
2022-11-21T01:12:20.296Z,7.90
2022-11-21T01:14:46.971Z,7.90
2022-11-21T01:17:13.672Z,7.90
2022-11-21T01:19:40.298Z,7.90
2022-11-21T01:22:06.934Z,7.90
2022-11-21T01:24:33.689Z,7.90
2022-11-21T01:27:00.286Z,7.90
2022-11-21T01:29:27.866Z,7.90
2022-11-21T01:31:54.541Z,7.90
2022-11-21T01:34:21.257Z,7.90
2022-11-21T01:36:47.905Z,7.80
2022-11-21T01:39:14.720Z,7.90
2022-11-21T01:41:43.868Z,7.80
2022-11-21T01:44:18.287Z,7.80
2022-11-21T01:46:45.283Z,7.80
2022-11-21T01:49:26.701Z,7.80
2022-11-21T01:52:14.578Z,7.80
2022-11-21T01:54:49.600Z,7.80
2022-11-21T01:57:41.895Z,7.80
2022-11-21T02:00:24.795Z,7.70
2022-11-21T02:02:59.096Z,7.70
2022-11-21T02:05:29.153Z,7.70
2022-11-21T02:07:59.895Z,7.70
2022-11-21T02:10:27.397Z,7.70
2022-11-21T02:12:56.330Z,7.60
2022-11-21T02:15:25.806Z,7.60
2022-11-21T02:17:52.885Z,7.60
2022-11-21T02:20:22.339Z,7.60
2022-11-21T02:22:57.544Z,7.60
2022-11-21T02:25:27.914Z,7.60
2022-11-21T02:27:59.266Z,7.60
2022-11-21T02:30:27.859Z,7.60
2022-11-21T02:32:55.594Z,7.50
2022-11-21T02:35:22.535Z,7.50
2022-11-21T02:38:03.968Z,7.50
2022-11-21T02:40:37.554Z,7.50
2022-11-21T02:43:15.034Z,7.50
2022-11-21T02:45:44.108Z,7.50
2022-11-21T02:48:11.396Z,7.50
2022-11-21T02:50:44.602Z,7.40
2022-11-21T02:53:16.777Z,7.40
2022-11-21T02:55:43.678Z,7.40
2022-11-21T02:58:11.552Z,7.40
2022-11-21T03:00:39.939Z,7.40
2022-11-21T03:03:06.989Z,7.40
2022-11-21T03:05:33.999Z,7.40
2022-11-21T03:08:00.857Z,7.40
2022-11-21T03:10:27.559Z,7.40
2022-11-21T03:13:01.062Z,7.40
2022-11-21T03:15:30.320Z,7.30
2022-11-21T03:17:58.045Z,7.30
2022-11-21T03:20:25.111Z,7.30
2022-11-21T03:22:53.397Z,7.30
2022-11-21T03:25:20.792Z,7.30
2022-11-21T03:27:51.195Z,7.30
2022-11-21T03:30:17.997Z,7.20
2022-11-21T03:32:44.683Z,7.20
2022-11-21T03:35:11.315Z,7.20
2022-11-21T03:37:38.466Z,7.20
2022-11-21T03:40:05.695Z,7.20
2022-11-21T03:42:32.595Z,7.20
2022-11-21T03:44:59.194Z,7.20
2022-11-21T03:47:27.375Z,7.20
2022-11-21T03:49:54.153Z,7.20
2022-11-21T03:52:21.044Z,7.20
2022-11-21T03:54:47.644Z,7.20
2022-11-21T03:57:14.263Z,7.20
2022-11-21T03:59:40.878Z,7.20
2022-11-21T04:02:07.673Z,7.20
2022-11-21T04:04:34.382Z,7.20
2022-11-21T04:07:01.158Z,7.20
2022-11-21T04:09:27.759Z,7.20
2022-11-21T04:11:54.383Z,7.10
2022-11-21T04:14:21.010Z,7.20
2022-11-21T04:16:47.609Z,7.20
2022-11-21T04:19:14.186Z,7.10
2022-11-21T04:21:40.778Z,7.10
2022-11-21T04:24:07.736Z,7.10
2022-11-21T04:26:35.470Z,7.10
2022-11-21T04:29:02.130Z,7.10
2022-11-21T04:31:28.846Z,7.10
2022-11-21T04:33:55.387Z,7.10
2022-11-21T04:36:22.125Z,7.10
2022-11-21T04:38:48.800Z,7.10
2022-11-21T04:41:15.554Z,7.10
2022-11-21T04:43:42.168Z,7.10
2022-11-21T04:46:08.826Z,7.10
2022-11-21T04:48:35.445Z,7.00
2022-11-21T04:51:02.047Z,7.10
2022-11-21T04:53:28.729Z,7.00
2022-11-21T04:55:55.392Z,7.00
2022-11-21T04:58:22.158Z,7.00
2022-11-21T05:00:48.876Z,7.00
2022-11-21T05:03:16.787Z,7.00
2022-11-21T05:05:43.453Z,7.00
2022-11-21T05:08:10.151Z,7.00
2022-11-21T05:10:56.858Z,7.00
2022-11-21T05:13:23.926Z,7.00
2022-11-21T05:15:57.095Z,7.00
2022-11-21T05:18:23.983Z,6.90
2022-11-21T05:20:50.822Z,7.00
2022-11-21T05:23:17.609Z,6.90
2022-11-21T05:25:44.237Z,6.90
2022-11-21T05:28:10.950Z,6.90
2022-11-21T05:30:38.577Z,6.90
2022-11-21T05:33:05.793Z,6.90
2022-11-21T05:35:32.438Z,6.90
2022-11-21T05:37:59.467Z,6.90
2022-11-21T05:40:26.195Z,6.90
2022-11-21T05:43:11.501Z,6.90
2022-11-21T05:45:38.763Z,6.90
2022-11-21T05:48:08.839Z,6.90
2022-11-21T05:50:39.196Z,6.90
2022-11-21T05:53:06.589Z,6.90
2022-11-21T05:55:36.384Z,6.90
2022-11-21T05:58:03.228Z,6.80
2022-11-21T06:00:30.308Z,6.80
2022-11-21T06:03:15.846Z,6.80
2022-11-21T06:05:42.735Z,6.90
2022-11-21T06:08:09.865Z,6.80
2022-11-21T06:10:36.579Z,6.80
2022-11-21T06:13:03.555Z,6.80
2022-11-21T06:15:30.573Z,6.80
2022-11-21T06:18:00.118Z,6.80
2022-11-21T06:20:26.812Z,6.80
2022-11-21T06:22:53.836Z,6.80
2022-11-21T06:25:20.549Z,6.80
2022-11-21T06:27:47.235Z,6.70
2022-11-21T06:30:19.028Z,6.80
2022-11-21T06:32:48.495Z,6.80
2022-11-21T06:35:15.302Z,6.80
2022-11-21T06:37:43.018Z,6.70
2022-11-21T06:40:10.458Z,6.70
2022-11-21T06:42:37.296Z,6.70
2022-11-21T06:45:04.228Z,6.70
2022-11-21T06:47:35.058Z,6.70
2022-11-21T06:50:01.807Z,6.70
2022-11-21T06:52:28.437Z,6.70
2022-11-21T06:54:55.087Z,6.70
2022-11-21T06:57:21.684Z,6.70
2022-11-21T06:59:48.292Z,6.70
2022-11-21T07:02:15.261Z,6.70
2022-11-21T07:04:41.836Z,6.70
2022-11-21T07:07:08.507Z,6.70
2022-11-21T07:09:36.109Z,6.70
2022-11-21T07:12:21.999Z,6.70
2022-11-21T07:14:48.609Z,6.70
2022-11-21T07:17:15.773Z,6.70
2022-11-21T07:19:42.467Z,6.70
2022-11-21T07:22:09.173Z,6.70
2022-11-21T07:24:35.751Z,6.70
2022-11-21T07:27:02.800Z,6.70
2022-11-21T07:29:29.731Z,6.70
2022-11-21T07:31:56.705Z,6.70
2022-11-21T07:34:23.310Z,6.70
2022-11-21T07:36:50.064Z,6.70
2022-11-21T07:39:16.709Z,6.70
2022-11-21T07:41:43.525Z,6.70
2022-11-21T07:44:10.203Z,6.70
2022-11-21T07:46:36.820Z,6.70
2022-11-21T07:49:03.952Z,6.70
2022-11-21T07:51:30.754Z,6.70
2022-11-21T07:53:57.316Z,6.70
2022-11-21T07:56:26.486Z,6.70
2022-11-21T07:58:53.507Z,6.70
2022-11-21T08:01:20.390Z,6.70
2022-11-21T08:03:47.099Z,6.70
2022-11-21T08:06:13.840Z,6.70
2022-11-21T08:08:40.419Z,6.70
2022-11-21T08:11:07.654Z,6.70
2022-11-21T08:13:34.825Z,6.70
2022-11-21T08:16:04.727Z,6.70
2022-11-21T08:18:31.730Z,6.70
2022-11-21T08:21:01.419Z,6.70
2022-11-21T08:23:28.070Z,6.70
2022-11-21T08:25:54.663Z,6.70
2022-11-21T08:28:21.247Z,6.70
2022-11-21T08:30:47.932Z,6.70
2022-11-21T08:33:14.503Z,6.70
2022-11-21T08:35:42.169Z,6.70
2022-11-21T08:38:09.035Z,6.60
2022-11-21T08:40:36.904Z,6.60
2022-11-21T08:43:08.440Z,6.70
2022-11-21T08:45:36.956Z,6.70
2022-11-21T08:48:04.120Z,6.70
2022-11-21T08:50:31.987Z,6.70
2022-11-21T08:53:02.334Z,6.70
2022-11-21T08:55:29.757Z,6.70
2022-11-21T08:57:56.566Z,6.70
2022-11-21T09:00:23.521Z,6.70
2022-11-21T09:02:50.293Z,6.70
2022-11-21T09:05:16.970Z,6.70
2022-11-21T09:07:43.667Z,6.70
2022-11-21T09:10:10.565Z,6.70
2022-11-21T09:12:37.215Z,6.70
2022-11-21T09:15:22.905Z,6.70
2022-11-21T09:18:04.891Z,6.70
2022-11-21T09:20:34.066Z,6.70
2022-11-21T09:23:11.695Z,6.80
2022-11-21T09:25:38.693Z,6.80
2022-11-21T09:28:07.486Z,6.80
2022-11-21T09:30:34.773Z,6.80
2022-11-21T09:33:02.911Z,6.90
2022-11-21T09:35:29.733Z,6.90
2022-11-21T09:37:57.799Z,6.90
2022-11-21T09:40:25.309Z,7.00
2022-11-21T09:43:22.975Z,7.00
2022-11-21T09:46:17.597Z,7.10
2022-11-21T09:48:58.191Z,7.20
2022-11-21T09:51:27.620Z,7.20
2022-11-21T09:54:12.266Z,7.20
2022-11-21T09:56:42.214Z,7.30
2022-11-21T09:59:20.809Z,7.40
2022-11-21T10:01:47.788Z,7.40
2022-11-21T10:04:14.581Z,7.50
2022-11-21T10:07:11.356Z,7.60
2022-11-21T10:09:51.353Z,7.60
2022-11-21T10:12:40.580Z,7.70
2022-11-21T10:15:07.660Z,7.80
2022-11-21T10:17:57.535Z,7.90
2022-11-21T10:20:36.208Z,8.00
2022-11-21T10:23:24.372Z,8.10
2022-11-21T10:26:03.334Z,8.10
2022-11-21T10:28:57.202Z,8.20
2022-11-21T10:31:26.088Z,8.30
2022-11-21T10:33:54.641Z,8.40
2022-11-21T10:36:30.392Z,8.40
2022-11-21T10:39:10.266Z,8.50
2022-11-21T10:41:50.902Z,8.60
2022-11-21T10:44:45.039Z,8.70
2022-11-21T10:47:27.670Z,8.70
2022-11-21T10:50:18.449Z,8.70
2022-11-21T10:52:50.823Z,8.80
2022-11-21T10:55:18.568Z,8.90
2022-11-21T10:57:50.890Z,8.90
2022-11-21T11:00:24.728Z,9.00
2022-11-21T11:02:57.332Z,9.10
2022-11-21T11:05:31.835Z,9.10
2022-11-21T11:08:13.400Z,9.20
2022-11-21T11:10:42.784Z,9.20
2022-11-21T11:13:51.739Z,9.30
2022-11-21T11:16:21.050Z,9.40
2022-11-21T11:18:58.859Z,9.50
2022-11-21T11:21:50.966Z,9.50
2022-11-21T11:24:17.808Z,9.60
2022-11-21T11:26:48.684Z,9.70
2022-11-21T11:29:17.171Z,9.80
2022-11-21T11:31:49.948Z,9.90
2022-11-21T11:34:17.532Z,10.00
2022-11-21T11:36:56.855Z,10.10
2022-11-21T11:39:38.390Z,10.20
2022-11-21T11:42:54.231Z,10.30
2022-11-21T11:45:59.826Z,10.40
2022-11-21T11:48:28.990Z,10.50
2022-11-21T11:51:04.670Z,10.60
2022-11-21T11:53:40.558Z,10.70
2022-11-21T11:56:19.027Z,10.70
2022-11-21T11:58:54.869Z,10.80
2022-11-21T12:01:34.005Z,10.90
2022-11-21T12:04:13.593Z,11.00
2022-11-21T12:07:26.117Z,11.00
2022-11-21T12:09:45.547Z,11.10
2022-11-21T12:12:36.475Z,11.10
2022-11-21T12:15:42.453Z,11.20
2022-11-21T12:18:21.110Z,11.20
2022-11-21T12:21:02.840Z,11.20
2022-11-21T12:23:56.761Z,11.20
2022-11-21T12:26:38.742Z,11.30
2022-11-21T12:29:41.963Z,11.30
2022-11-21T12:32:32.109Z,11.30
2022-11-21T12:35:01.792Z,11.30
2022-11-21T12:37:47.218Z,11.40
2022-11-21T12:40:39.855Z,11.40
2022-11-21T12:43:25.739Z,11.40
2022-11-21T12:46:19.528Z,11.40
2022-11-21T12:49:17.317Z,11.40
2022-11-21T12:52:16.932Z,11.40
2022-11-21T12:55:07.355Z,11.50
2022-11-21T12:57:58.786Z,11.50
2022-11-21T13:00:47.899Z,11.50
2022-11-21T13:03:36.083Z,11.50
2022-11-21T13:06:05.306Z,11.50
2022-11-21T13:08:36.649Z,11.50
2022-11-21T13:11:39.919Z,11.50
2022-11-21T13:14:25.262Z,11.60
2022-11-21T13:17:20.883Z,11.50
2022-11-21T13:20:02.037Z,11.60
2022-11-21T13:22:37.836Z,11.60
2022-11-21T13:25:31.731Z,11.60
2022-11-21T13:28:13.987Z,11.50
2022-11-21T13:30:50.673Z,11.50
2022-11-21T13:33:35.953Z,11.50
2022-11-21T13:36:25.530Z,11.50
2022-11-21T13:38:55.013Z,11.50
2022-11-21T13:41:55.774Z,11.50
2022-11-21T13:44:31.974Z,11.50
2022-11-21T13:47:15.181Z,11.50
2022-11-21T13:50:05.212Z,11.50
2022-11-21T13:52:45.061Z,11.50
2022-11-21T13:55:29.879Z,11.40
2022-11-21T13:58:04.030Z,11.50
2022-11-21T14:00:43.053Z,11.50
2022-11-21T14:03:31.597Z,11.40
2022-11-21T14:06:17.196Z,11.40
2022-11-21T14:08:46.190Z,11.40
2022-11-21T14:11:33.785Z,11.40
2022-11-21T14:14:02.108Z,11.40
2022-11-21T14:16:41.210Z,11.30
2022-11-21T14:19:14.834Z,11.30
2022-11-21T14:21:46.524Z,11.30
2022-11-21T14:24:17.488Z,11.30
2022-11-21T14:26:47.925Z,11.20
2022-11-21T14:29:28.443Z,11.20
2022-11-21T14:31:55.804Z,11.20
2022-11-21T14:34:28.659Z,11.20
2022-11-21T14:36:58.817Z,11.20
2022-11-21T14:39:43.341Z,11.20
2022-11-21T14:42:15.054Z,11.10
2022-11-21T14:44:44.938Z,11.10
2022-11-21T14:47:25.757Z,11.10
2022-11-21T14:50:02.243Z,11.10
2022-11-21T14:52:32.713Z,11.00
2022-11-21T14:57:54.355Z,11.00
2022-11-21T15:03:26.106Z,10.90
2022-11-21T15:06:07.040Z,10.90
2022-11-21T15:09:51.407Z,10.90
2022-11-21T15:11:27.198Z,10.90
2022-11-21T15:14:14.972Z,10.80
2022-11-21T15:16:44.182Z,10.80
2022-11-21T15:19:11.470Z,10.80
2022-11-21T15:21:46.483Z,10.70
2022-11-21T15:24:37.761Z,10.70
2022-11-21T15:27:32.910Z,10.70
2022-11-21T15:30:10.900Z,10.70
2022-11-21T15:33:11.374Z,10.60
2022-11-21T15:35:37.927Z,10.60
2022-11-21T15:38:26.838Z,10.60
2022-11-21T15:41:09.332Z,10.50
2022-11-21T15:43:52.367Z,10.50
2022-11-21T15:46:27.318Z,10.50
2022-11-21T15:48:59.259Z,10.50
2022-11-21T15:54:33.873Z,10.40
2022-11-21T15:57:00.526Z,10.40
2022-11-21T15:59:27.447Z,10.40
2022-11-21T16:01:54.282Z,10.40
2022-11-21T16:04:25.307Z,10.30
2022-11-21T16:06:53.247Z,10.30
2022-11-21T16:09:19.871Z,10.30
2022-11-21T16:11:47.120Z,10.30
2022-11-21T16:14:15.795Z,10.20
2022-11-21T16:16:43.908Z,10.30
2022-11-21T16:19:14.043Z,10.20
2022-11-21T16:21:41.245Z,10.20
2022-11-21T16:24:08.340Z,10.20
2022-11-21T16:26:35.153Z,10.20
2022-11-21T16:29:05.249Z,10.20
2022-11-21T16:31:32.411Z,10.20
2022-11-21T16:34:00.485Z,10.10
2022-11-21T16:36:31.848Z,10.10
2022-11-21T16:39:07.640Z,10.10
2022-11-21T16:41:36.304Z,10.10
2022-11-21T16:44:03.131Z,10.10
2022-11-21T16:46:29.803Z,10.10
2022-11-21T16:49:01.560Z,10.10
2022-11-21T16:51:29.411Z,10.10
2022-11-21T16:53:57.429Z,10.10
2022-11-21T16:56:24.365Z,10.00
2022-11-21T16:58:50.994Z,10.00
2022-11-21T17:01:20.180Z,10.00
2022-11-21T17:03:48.521Z,10.00
2022-11-21T17:06:21.550Z,10.00
2022-11-21T17:08:51.292Z,9.90
2022-11-21T17:11:23.867Z,9.90
2022-11-21T17:13:51.319Z,9.90
2022-11-21T17:16:19.943Z,9.90
2022-11-21T17:18:46.772Z,9.90
2022-11-21T17:21:15.868Z,9.90
2022-11-21T17:23:44.894Z,9.90
2022-11-21T17:26:15.972Z,9.80
2022-11-21T17:28:45.817Z,9.90
2022-11-21T17:31:16.449Z,9.80
2022-11-21T17:33:43.862Z,9.80
2022-11-21T17:36:12.791Z,9.80
2022-11-21T17:38:40.021Z,9.80
2022-11-21T17:41:09.734Z,9.80
2022-11-21T17:43:36.408Z,9.70
2022-11-21T17:46:10.219Z,9.70
2022-11-21T17:48:37.819Z,9.70
2022-11-21T17:51:12.831Z,9.70
2022-11-21T17:53:42.728Z,9.70
2022-11-21T17:56:24.212Z,9.70
2022-11-21T17:58:52.154Z,9.70
2022-11-21T18:01:19.890Z,9.70
2022-11-21T18:03:58.603Z,9.70
2022-11-21T18:06:47.078Z,9.70
2022-11-21T18:09:14.291Z,9.60
2022-11-21T18:11:41.267Z,9.70
2022-11-21T18:14:10.114Z,9.60
2022-11-21T18:16:39.238Z,9.60
2022-11-21T18:19:06.070Z,9.60
2022-11-21T18:21:35.465Z,9.60
2022-11-21T18:24:02.642Z,9.60
2022-11-21T18:26:35.402Z,9.60
2022-11-21T18:31:51.323Z,9.60
2022-11-21T18:34:18.069Z,9.60
2022-11-21T18:36:45.262Z,9.60
2022-11-21T18:39:15.167Z,9.60
2022-11-21T18:41:43.125Z,9.60
2022-11-21T18:44:10.442Z,9.60
2022-11-21T18:46:38.341Z,9.60
2022-11-21T18:49:06.827Z,9.60
2022-11-21T18:51:35.076Z,9.60
2022-11-21T18:54:05.227Z,9.60
2022-11-21T18:56:32.057Z,9.60
2022-11-21T18:58:59.563Z,9.60
2022-11-21T19:01:28.722Z,9.60
2022-11-21T19:03:56.173Z,9.60
2022-11-21T19:06:24.867Z,9.60
2022-11-21T19:08:55.739Z,9.60
2022-11-21T19:11:24.915Z,9.60
2022-11-21T19:13:53.210Z,9.60
2022-11-21T19:16:24.299Z,9.60
2022-11-21T19:19:18.602Z,9.60
2022-11-21T19:21:39.645Z,9.60
2022-11-21T19:24:07.550Z,9.70
2022-11-21T19:26:34.154Z,9.60
2022-11-21T19:29:00.932Z,9.60
2022-11-21T19:31:27.829Z,9.60
2022-11-21T19:33:54.498Z,9.60
2022-11-21T19:36:23.027Z,9.60
2022-11-21T19:38:51.558Z,9.60
2022-11-21T19:41:22.134Z,9.60
2022-11-21T19:43:58.413Z,9.60
2022-11-21T19:46:27.813Z,9.60
2022-11-21T19:48:56.141Z,9.60
2022-11-21T19:51:27.916Z,9.60
2022-11-21T19:53:54.677Z,9.60
2022-11-21T19:56:23.996Z,9.60
2022-11-21T19:58:51.727Z,9.60
2022-11-21T20:01:21.092Z,9.60
2022-11-21T20:03:49.538Z,9.60
2022-11-21T20:06:18.801Z,9.60
2022-11-21T20:08:50.226Z,9.60
2022-11-21T20:11:17.431Z,9.60
2022-11-21T20:13:45.330Z,9.60
2022-11-21T20:16:20.641Z,9.60
2022-11-21T20:18:47.724Z,9.60
2022-11-21T20:21:15.043Z,9.60
2022-11-21T20:23:41.934Z,9.60
2022-11-21T20:26:09.363Z,9.60
2022-11-21T20:28:37.001Z,9.60
2022-11-21T20:31:24.934Z,9.60
2022-11-21T20:33:53.788Z,9.60
2022-11-21T20:36:23.035Z,9.60
2022-11-21T20:38:54.863Z,9.60
2022-11-21T20:41:24.063Z,9.60
2022-11-21T20:46:49.209Z,9.60
2022-11-21T20:49:15.912Z,9.60
2022-11-21T20:54:32.621Z,9.60
2022-11-21T20:56:59.361Z,9.60
2022-11-21T20:59:27.380Z,9.60
2022-11-21T21:01:54.589Z,9.60
2022-11-21T21:04:21.293Z,9.60
2022-11-21T21:06:47.991Z,9.60
2022-11-21T21:09:14.718Z,9.60
2022-11-21T21:11:56.688Z,9.60
2022-11-21T21:14:23.450Z,9.60
2022-11-21T21:16:50.484Z,9.60
2022-11-21T21:19:17.473Z,9.60
2022-11-21T21:21:44.287Z,9.60
2022-11-21T21:24:11.781Z,9.60
2022-11-21T21:26:44.323Z,9.60
2022-11-21T21:29:13.128Z,9.60
2022-11-21T21:31:42.853Z,9.60
2022-11-21T21:34:13.667Z,9.60
2022-11-21T21:36:40.337Z,9.60
2022-11-21T21:39:06.968Z,9.60
2022-11-21T21:41:33.653Z,9.60
2022-11-21T21:44:00.351Z,9.60
2022-11-21T21:46:27.966Z,9.60
2022-11-21T21:48:56.946Z,9.60
2022-11-21T21:51:26.166Z,9.60
2022-11-21T21:53:54.092Z,9.60
2022-11-21T21:56:21.802Z,9.60
2022-11-21T21:58:50.675Z,9.60
2022-11-21T22:01:23.318Z,9.60
2022-11-21T22:03:54.543Z,9.60
2022-11-21T22:06:21.560Z,9.60
2022-11-21T22:08:49.532Z,9.60
2022-11-21T22:11:24.292Z,9.60
2022-11-21T22:13:51.967Z,9.60
2022-11-21T22:16:18.719Z,9.60
2022-11-21T22:18:45.392Z,9.60
2022-11-21T22:21:33.751Z,9.60
2022-11-21T22:26:51.899Z,9.60
2022-11-21T22:29:18.569Z,9.60
2022-11-21T22:31:45.363Z,9.60
2022-11-21T22:34:13.426Z,9.60
2022-11-21T22:36:40.296Z,9.60
2022-11-21T22:39:06.975Z,9.60
2022-11-21T22:41:33.672Z,9.60
2022-11-21T22:44:00.404Z,9.60
2022-11-21T22:46:30.806Z,9.60
2022-11-21T22:48:58.371Z,9.60
2022-11-21T22:51:29.092Z,9.60
2022-11-21T22:53:56.163Z,9.60
2022-11-21T22:56:24.299Z,9.60
2022-11-21T22:58:51.448Z,9.60
2022-11-21T23:01:23.585Z,9.60
2022-11-21T23:03:50.891Z,9.60
2022-11-21T23:06:20.235Z,9.60
2022-11-21T23:08:47.730Z,9.70
2022-11-21T23:11:17.080Z,9.60
2022-11-21T23:13:45.556Z,9.60
2022-11-21T23:16:12.957Z,9.60
2022-11-21T23:18:40.177Z,9.60
2022-11-21T23:21:07.847Z,9.60
2022-11-21T23:23:35.051Z,9.60
2022-11-21T23:26:01.908Z,9.60
2022-11-21T23:28:28.720Z,9.60
2022-11-21T23:30:55.709Z,9.60
2022-11-21T23:33:25.035Z,9.60
2022-11-21T23:35:51.793Z,9.60
2022-11-21T23:38:19.025Z,9.60
2022-11-21T23:40:47.231Z,9.60
2022-11-21T23:43:17.653Z,9.60
2022-11-21T23:45:45.459Z,9.60
2022-11-21T23:48:12.420Z,9.60
2022-11-21T23:50:41.284Z,9.60
2022-11-21T23:53:08.935Z,9.50
2022-11-21T23:55:36.035Z,9.50
2022-11-21T23:58:02.879Z,9.50
